createdAt,value
2017-06-20T00:08:13.404Z,1009.6
2017-06-20T00:18:28.921Z,1009.4
2017-06-20T00:28:43.047Z,1009.5
2017-06-20T00:38:58.594Z,1009.4
2017-06-20T00:49:14.094Z,1009.4
2017-06-20T00:59:27.906Z,1009.4
2017-06-20T01:09:42.346Z,1009.3
2017-06-20T01:19:56.975Z,1009.3
2017-06-20T01:30:12.595Z,1009.4
2017-06-20T01:40:28.288Z,1009.3
2017-06-20T01:50:43.109Z,1009.3
2017-06-20T02:00:58.597Z,1009.3
2017-06-20T02:11:13.101Z,1009.3
2017-06-20T02:21:27.759Z,1009.3
2017-06-20T02:31:42.154Z,1009.3
2017-06-20T02:41:57.696Z,1009.3
2017-06-20T02:52:11.558Z,1009.3
2017-06-20T03:02:25.580Z,1009.3
2017-06-20T03:12:40.042Z,1009.2
2017-06-20T03:22:53.863Z,1009.2
2017-06-20T03:33:08.825Z,1009.3
2017-06-20T03:43:23.982Z,1009.3
2017-06-20T03:53:39.744Z,1009.4
2017-06-20T04:03:53.951Z,1009.4
2017-06-20T04:14:08.239Z,1009.5
2017-06-20T04:24:22.525Z,1009.4
2017-06-20T04:34:37.325Z,1009.5
2017-06-20T04:44:52.081Z,1009.5
2017-06-20T04:55:06.379Z,1009.5
2017-06-20T05:05:20.164Z,1009.6
2017-06-20T05:15:34.637Z,1009.7
2017-06-20T05:25:49.024Z,1009.8
2017-06-20T05:36:04.440Z,1009.9
2017-06-20T05:46:20.144Z,1009.9
2017-06-20T05:56:34.169Z,1010
2017-06-20T06:06:48.177Z,1010.1
2017-06-20T06:17:02.212Z,1010.2
2017-06-20T06:27:16.177Z,1010.1
2017-06-20T06:37:30.097Z,1010.2
2017-06-20T06:47:44.435Z,1010.3
2017-06-20T06:57:59.154Z,1010.4
2017-06-20T07:08:14.212Z,1010.5
2017-06-20T07:18:29.126Z,1010.5
2017-06-20T07:28:43.107Z,1010.7
2017-06-20T07:38:58.514Z,1010.8
2017-06-20T07:49:13.443Z,1010.8
2017-06-20T07:59:28.287Z,1010.9
2017-06-20T08:09:43.726Z,1010.9
2017-06-20T08:19:57.714Z,1011.1
2017-06-20T08:30:12.144Z,1011.1
2017-06-20T08:40:26.521Z,1011
2017-06-20T08:50:40.802Z,1011
2017-06-20T09:00:55.430Z,1011.1
2017-06-20T09:11:10.386Z,1011.1
2017-06-20T09:21:25.158Z,1011.2
2017-06-20T09:31:40.013Z,1011.2
2017-06-20T09:41:54.356Z,1011.3
2017-06-20T09:52:08.755Z,1011.3
2017-06-20T10:02:23.895Z,1011.3
2017-06-20T10:12:39.380Z,1011.3
2017-06-20T10:22:54.349Z,1011.3
2017-06-20T10:33:08.623Z,1011.3
2017-06-20T10:43:23.313Z,1011.3
2017-06-20T10:53:37.972Z,1011.4
2017-06-20T11:03:52.379Z,1011.3
2017-06-20T11:14:07.467Z,1011.5
2017-06-20T11:24:22.079Z,1011.7
2017-06-20T11:34:36.263Z,1011.5
2017-06-20T11:44:51.876Z,1011.4
2017-06-20T11:55:06.628Z,1011.2
2017-06-20T12:05:21.647Z,1011.6
2017-06-20T12:15:35.660Z,1011.6
2017-06-20T12:25:49.858Z,1011.1
2017-06-20T12:36:05.673Z,1011.6
2017-06-20T12:46:20.345Z,1011.6
2017-06-20T12:56:34.678Z,1011.4
2017-06-20T13:06:49.776Z,1011.2
2017-06-20T13:17:04.555Z,1012.1
2017-06-20T13:27:19.257Z,1011.5
2017-06-20T13:37:34.803Z,1011.8
2017-06-20T13:47:50.206Z,1012.1
2017-06-20T13:58:04.850Z,1011.7
2017-06-20T14:08:20.774Z,1011.5
2017-06-20T14:18:35.470Z,1011.5
2017-06-20T14:28:51.249Z,1011.3
2017-06-20T14:39:06.149Z,1011.4
2017-06-20T14:49:20.367Z,1011.2
2017-06-20T14:59:35.600Z,1011.3
2017-06-20T15:09:50.757Z,1011.1
2017-06-20T15:20:05.163Z,1011
2017-06-20T15:30:19.931Z,1011.1
2017-06-20T15:40:34.785Z,1011.1
2017-06-20T15:50:48.711Z,1011.1
2017-06-20T16:01:03.161Z,1010.9
2017-06-20T16:11:18.593Z,1011.2
2017-06-20T16:21:34.306Z,1011.3
2017-06-20T16:31:48.486Z,1011.2
2017-06-20T16:42:03.758Z,1011
2017-06-20T16:52:18.128Z,1011.2
2017-06-20T17:02:33.730Z,1011.1
2017-06-20T17:12:48.588Z,1011.1
2017-06-20T17:23:03.196Z,1011
2017-06-20T17:33:18.894Z,1011.1
2017-06-20T17:43:34.130Z,1011.2
2017-06-20T17:53:49.218Z,1011.2
2017-06-20T18:04:03.845Z,1011.2
2017-06-20T18:14:18.119Z,1011.2
2017-06-20T18:24:32.973Z,1011.3
2017-06-20T18:34:47.756Z,1011.5
2017-06-20T18:45:01.993Z,1011.6
2017-06-20T18:55:15.940Z,1011.7
2017-06-20T19:05:31.247Z,1011.8
2017-06-20T19:15:46.643Z,1011.9
2017-06-20T19:26:01.352Z,1011.9
2017-06-20T19:36:16.537Z,1012.1
2017-06-20T19:46:30.428Z,1012.2
2017-06-20T19:56:46.001Z,1012.2
2017-06-20T20:07:01.691Z,1012.3
2017-06-20T20:17:17.481Z,1012.3
2017-06-20T20:27:32.017Z,1012.3
2017-06-20T20:37:46.689Z,1012.4
2017-06-20T20:48:00.517Z,1012.5
2017-06-20T20:58:15.249Z,1012.6
2017-06-20T21:08:30.137Z,1012.7
2017-06-20T21:18:45.310Z,1012.5
2017-06-20T21:29:00.798Z,1012.6
2017-06-20T21:39:15.857Z,1012.6
2017-06-20T21:49:30.514Z,1012.7
2017-06-20T21:59:45.431Z,1012.7
2017-06-20T22:10:00.306Z,1012.8
2017-06-20T22:20:14.228Z,1012.7
2017-06-20T22:30:28.309Z,1012.6
2017-06-20T22:40:42.539Z,1012.6
2017-06-20T22:50:56.498Z,1012.6
2017-06-20T23:01:12.072Z,1012.8
2017-06-20T23:11:27.407Z,1012.8
2017-06-20T23:21:42.266Z,1012.8
2017-06-20T23:31:56.662Z,1012.8
2017-06-20T23:42:10.471Z,1012.8
2017-06-20T23:52:25.385Z,1012.7
